Aviation Digital Data Service (ADDS)

Output produced by METARs form (1852 UTC 19 April 2019)
found at http://www.aviationweather.gov/metar/data/
 
Forecast for: EHRD (ROTTERDAM AIRPOR, NL)
Text: TAF EHRD 191650Z 1918/2024 06009KT CAVOK
Forecast period: 1800 UTC 19 April 2019 to 0000 UTC 21 April 2019
Forecast type: FROM: standard forecast or significant change
Winds: from the ENE (60 degrees) at 10 MPH (9 knots; 4.6 m/s)
Visibility: 6 or more miles 10+ km)
Ceiling: unknown
Clouds: missing
Weather: NSW  (no significant weather)